createdAt,value
2023-05-16T00:00:58.840Z,5.03
2023-05-16T00:03:25.679Z,8.35
2023-05-16T00:05:52.406Z,4.53
2023-05-16T00:08:19.041Z,7.13
2023-05-16T00:10:45.604Z,8.57
2023-05-16T00:13:13.545Z,5.13
2023-05-16T00:15:40.078Z,6.35
2023-05-16T00:18:06.742Z,7.00
2023-05-16T00:20:34.538Z,8.48
2023-05-16T00:23:01.258Z,6.60
2023-05-16T00:25:28.586Z,7.30
2023-05-16T00:27:55.227Z,7.82
2023-05-16T00:30:22.670Z,7.95
2023-05-16T00:32:49.510Z,10.80
2023-05-16T00:35:16.146Z,9.23
2023-05-16T00:37:42.709Z,9.10
2023-05-16T00:40:09.838Z,9.65
2023-05-16T00:42:36.401Z,8.52
2023-05-16T00:45:03.878Z,8.30
2023-05-16T00:47:30.502Z,8.57
2023-05-16T00:49:57.169Z,10.48
2023-05-16T00:52:24.334Z,10.52
2023-05-16T00:54:51.977Z,7.30
2023-05-16T00:57:18.841Z,7.28
2023-05-16T00:59:46.957Z,6.25
2023-05-16T01:02:14.516Z,6.38
2023-05-16T01:04:42.753Z,7.03
2023-05-16T01:07:09.337Z,6.05
2023-05-16T01:09:36.081Z,5.60
2023-05-16T01:12:27.675Z,6.05
2023-05-16T01:15:09.551Z,6.63
2023-05-16T01:17:50.408Z,6.22
2023-05-16T01:20:32.040Z,6.07
2023-05-16T01:23:30.408Z,9.25
2023-05-16T01:26:08.899Z,8.73
2023-05-16T01:28:36.550Z,7.72
2023-05-16T01:31:03.456Z,6.72
2023-05-16T01:33:30.057Z,5.60
2023-05-16T01:36:09.754Z,6.47
2023-05-16T01:39:07.250Z,5.60
2023-05-16T01:41:40.748Z,5.40
2023-05-16T01:44:16.974Z,8.23
2023-05-16T01:46:46.309Z,8.68
2023-05-16T01:49:23.518Z,6.45
2023-05-16T01:51:55.686Z,6.53
2023-05-16T01:54:25.984Z,6.13
2023-05-16T01:56:55.854Z,6.88
2023-05-16T01:59:24.928Z,7.07
2023-05-16T02:01:54.887Z,7.60
2023-05-16T02:04:22.187Z,8.55
2023-05-16T02:06:49.084Z,10.10
2023-05-16T02:09:16.143Z,8.63
2023-05-16T02:11:43.386Z,9.77
2023-05-16T02:14:09.990Z,10.35
2023-05-16T02:16:36.989Z,11.20
2023-05-16T02:19:03.653Z,12.13
2023-05-16T02:21:31.120Z,11.70
2023-05-16T02:23:57.742Z,10.95
2023-05-16T02:26:24.309Z,12.30
2023-05-16T02:28:51.007Z,11.27
2023-05-16T02:31:28.651Z,12.60
2023-05-16T02:33:55.240Z,12.43
2023-05-16T02:36:21.806Z,14.20
2023-05-16T02:38:48.502Z,14.13
2023-05-16T02:41:15.166Z,12.75
2023-05-16T02:43:41.728Z,12.18
2023-05-16T02:46:43.680Z,12.77
2023-05-16T02:49:10.278Z,14.55
2023-05-16T02:51:36.843Z,15.43
2023-05-16T02:54:03.446Z,13.98
2023-05-16T02:56:30.216Z,14.40
2023-05-16T02:58:56.765Z,17.40
2023-05-16T03:01:23.343Z,16.00
2023-05-16T03:03:50.442Z,16.02
2023-05-16T03:06:17.182Z,15.88
2023-05-16T03:08:43.728Z,14.68
2023-05-16T03:11:10.261Z,15.32
2023-05-16T03:13:36.935Z,13.57
2023-05-16T03:16:03.651Z,15.40
2023-05-16T03:18:30.243Z,13.85
2023-05-16T03:20:57.405Z,13.85
2023-05-16T03:23:24.223Z,16.48
2023-05-16T03:25:50.881Z,14.68
2023-05-16T03:28:18.216Z,15.40
2023-05-16T03:30:45.309Z,15.27
2023-05-16T03:33:11.947Z,17.20
2023-05-16T03:35:38.642Z,17.63
2023-05-16T03:38:05.266Z,17.42
2023-05-16T03:40:31.998Z,15.20
2023-05-16T03:42:58.568Z,15.93
2023-05-16T03:45:25.383Z,15.30
2023-05-16T03:47:52.174Z,15.85
2023-05-16T03:50:18.929Z,16.85
2023-05-16T03:52:45.477Z,16.40
2023-05-16T03:55:14.331Z,15.23
2023-05-16T03:57:42.191Z,16.70
2023-05-16T04:00:10.943Z,16.60
2023-05-16T04:02:37.682Z,15.10
2023-05-16T04:05:04.679Z,14.82
2023-05-16T04:07:31.239Z,13.10
2023-05-16T04:09:58.578Z,14.52
2023-05-16T04:12:25.194Z,17.27
2023-05-16T04:14:51.783Z,14.55
2023-05-16T04:17:18.328Z,13.77
2023-05-16T04:19:45.190Z,13.90
2023-05-16T04:22:11.915Z,12.40
2023-05-16T04:24:38.450Z,13.55
2023-05-16T04:27:07.094Z,15.68
2023-05-16T04:29:33.653Z,15.95
2023-05-16T04:32:00.358Z,15.15
2023-05-16T04:34:27.802Z,14.32
2023-05-16T04:36:55.342Z,12.52
2023-05-16T04:39:22.242Z,14.63
2023-05-16T04:41:48.793Z,12.82
2023-05-16T04:44:15.602Z,15.77
2023-05-16T04:46:42.235Z,13.07
2023-05-16T04:49:08.884Z,15.48
2023-05-16T04:51:35.447Z,18.52
2023-05-16T04:54:02.059Z,14.55
2023-05-16T04:56:28.660Z,12.05
2023-05-16T04:58:55.218Z,13.32
2023-05-16T05:01:21.910Z,14.25
2023-05-16T05:03:48.645Z,11.50
2023-05-16T05:06:15.181Z,13.63
2023-05-16T05:08:41.737Z,12.27
2023-05-16T05:11:08.270Z,13.73
2023-05-16T05:13:34.905Z,14.57
2023-05-16T05:16:04.568Z,12.80
2023-05-16T05:18:31.330Z,13.00
2023-05-16T05:20:58.180Z,13.23
2023-05-16T05:23:24.781Z,13.15
2023-05-16T05:25:51.453Z,13.57
2023-05-16T05:28:18.050Z,11.68
2023-05-16T05:30:44.633Z,11.73
2023-05-16T05:33:12.138Z,13.35
2023-05-16T05:35:38.711Z,13.32
2023-05-16T05:38:06.060Z,13.15
2023-05-16T05:40:32.669Z,12.70
2023-05-16T05:42:59.202Z,13.10
2023-05-16T05:45:25.858Z,14.50
2023-05-16T05:47:52.670Z,11.68
2023-05-16T05:50:19.330Z,13.02
2023-05-16T05:52:46.002Z,16.25
2023-05-16T05:55:12.591Z,14.20
2023-05-16T05:57:39.328Z,14.68
2023-05-16T06:00:07.205Z,16.38
2023-05-16T06:02:33.892Z,13.57
2023-05-16T06:05:00.720Z,13.93
2023-05-16T06:07:27.272Z,13.55
2023-05-16T06:09:53.856Z,21.80
2023-05-16T06:12:20.466Z,15.95
2023-05-16T06:14:46.982Z,22.67
2023-05-16T06:17:13.573Z,14.82
2023-05-16T06:19:40.110Z,14.68
2023-05-16T06:22:06.643Z,14.60
2023-05-16T06:24:33.199Z,14.25
2023-05-16T06:26:59.707Z,13.13
2023-05-16T06:29:26.493Z,14.00
2023-05-16T06:31:53.193Z,16.92
2023-05-16T06:34:23.780Z,16.55
2023-05-16T06:36:50.305Z,15.43
2023-05-16T06:39:16.829Z,15.18
2023-05-16T06:41:43.403Z,17.17
2023-05-16T06:44:09.981Z,15.50
2023-05-16T06:46:36.601Z,15.25
2023-05-16T06:49:03.227Z,13.90
2023-05-16T06:51:30.036Z,16.35
2023-05-16T06:53:57.186Z,17.15
2023-05-16T06:56:23.798Z,17.15
2023-05-16T06:58:50.802Z,18.38
2023-05-16T07:01:17.439Z,18.83
2023-05-16T07:03:44.116Z,28.23
2023-05-16T07:06:10.879Z,17.98
2023-05-16T07:08:37.490Z,19.63
2023-05-16T07:11:04.154Z,18.67
2023-05-16T07:13:30.925Z,18.98
2023-05-16T07:15:57.745Z,19.23
2023-05-16T07:18:24.409Z,20.30
2023-05-16T07:20:51.464Z,20.35
2023-05-16T07:23:18.040Z,21.67
2023-05-16T07:25:44.664Z,24.90
2023-05-16T07:28:11.484Z,23.38
2023-05-16T07:30:38.034Z,19.83
2023-05-16T07:33:04.808Z,23.55
2023-05-16T07:35:31.515Z,25.20
2023-05-16T07:37:58.098Z,25.25
2023-05-16T07:40:28.239Z,27.85
2023-05-16T07:42:55.276Z,27.00
2023-05-16T07:45:22.148Z,28.20
2023-05-16T07:47:48.836Z,26.55
2023-05-16T07:50:15.539Z,29.73
2023-05-16T07:52:42.094Z,32.72
2023-05-16T07:55:09.268Z,31.27
2023-05-16T07:57:35.988Z,31.02
2023-05-16T08:00:04.308Z,32.35
2023-05-16T08:02:31.584Z,29.50
2023-05-16T08:04:58.364Z,28.58
2023-05-16T08:07:24.987Z,34.33
2023-05-16T08:09:51.620Z,32.33
2023-05-16T08:12:18.318Z,30.58
2023-05-16T08:14:44.909Z,33.30
2023-05-16T08:17:11.682Z,33.13
2023-05-16T08:19:38.262Z,33.58
2023-05-16T08:22:07.193Z,39.40
2023-05-16T08:24:33.744Z,32.90
2023-05-16T08:27:00.454Z,37.67
2023-05-16T08:29:27.107Z,37.13
2023-05-16T08:31:53.755Z,36.00
2023-05-16T08:34:20.636Z,38.33
2023-05-16T08:36:47.216Z,36.80
2023-05-16T08:39:13.763Z,45.50
2023-05-16T08:41:40.953Z,39.75
2023-05-16T08:44:07.608Z,36.88
2023-05-16T08:46:37.219Z,34.72
2023-05-16T08:49:08.735Z,38.30
2023-05-16T08:51:37.413Z,39.20
2023-05-16T08:54:06.643Z,42.47
2023-05-16T08:56:34.806Z,42.00
2023-05-16T08:59:02.685Z,36.53
2023-05-16T09:01:30.911Z,38.85
2023-05-16T09:03:58.291Z,36.80
2023-05-16T09:06:26.240Z,34.15
2023-05-16T09:08:56.267Z,38.22
2023-05-16T09:11:23.480Z,35.38
2023-05-16T09:13:51.005Z,40.15
2023-05-16T09:16:19.850Z,39.95
2023-05-16T09:18:55.593Z,33.80
2023-05-16T09:21:23.422Z,39.85
2023-05-16T09:23:50.974Z,37.67
2023-05-16T09:26:19.101Z,35.50
2023-05-16T09:28:45.673Z,40.65
2023-05-16T09:31:23.071Z,39.65
2023-05-16T09:33:50.599Z,39.85
2023-05-16T09:36:17.281Z,38.58
2023-05-16T09:38:44.280Z,48.25
2023-05-16T09:41:11.302Z,40.95
2023-05-16T09:43:42.115Z,43.42
2023-05-16T09:46:09.213Z,45.13
2023-05-16T09:48:36.213Z,41.10
2023-05-16T09:51:05.782Z,45.40
2023-05-16T09:53:33.777Z,54.22
2023-05-16T09:56:04.044Z,50.00
2023-05-16T09:58:36.333Z,53.65
2023-05-16T10:01:03.356Z,46.38
2023-05-16T10:03:30.185Z,46.17
2023-05-16T10:05:57.386Z,47.90
2023-05-16T10:08:26.083Z,45.72
2023-05-16T10:10:54.847Z,51.95
2023-05-16T10:13:23.729Z,50.95
2023-05-16T10:15:54.249Z,47.03
2023-05-16T10:18:22.125Z,50.47
2023-05-16T10:20:53.062Z,49.65
2023-05-16T10:25:48.884Z,29.42
2023-05-16T10:28:16.401Z,27.95
2023-05-16T10:30:44.941Z,27.40
2023-05-16T10:33:16.891Z,26.33
2023-05-16T10:35:44.484Z,29.20
2023-05-16T10:38:13.300Z,31.08
2023-05-16T10:40:40.867Z,31.13
2023-05-16T10:43:08.976Z,31.85
2023-05-16T10:45:40.367Z,29.05
2023-05-16T10:48:09.589Z,25.88
2023-05-16T10:50:43.703Z,24.90
2023-05-16T10:53:16.626Z,25.27
2023-05-16T10:55:49.393Z,26.25
2023-05-16T10:58:24.226Z,27.85
2023-05-16T11:01:17.477Z,26.40
2023-05-16T11:04:00.837Z,37.35
2023-05-16T11:06:42.571Z,37.05
2023-05-16T11:09:13.397Z,37.58
2023-05-16T11:11:49.143Z,42.20
2023-05-16T11:14:42.403Z,39.10
2023-05-16T11:17:21.159Z,41.58
2023-05-16T11:19:54.976Z,41.67
2023-05-16T11:22:32.423Z,43.30
2023-05-16T11:25:02.173Z,43.13
2023-05-16T11:27:33.935Z,40.15
2023-05-16T11:30:06.789Z,40.17
2023-05-16T11:32:38.806Z,38.17
2023-05-16T11:35:14.309Z,42.13
2023-05-16T11:37:42.179Z,42.10
2023-05-16T11:40:13.984Z,31.85
2023-05-16T11:42:48.712Z,26.77
2023-05-16T11:45:17.064Z,26.08
2023-05-16T11:47:46.100Z,29.10
2023-05-16T11:50:15.186Z,29.88
2023-05-16T11:52:54.561Z,29.98
2023-05-16T11:55:39.471Z,27.42
2023-05-16T11:58:07.860Z,22.25
2023-05-16T12:00:34.783Z,21.92
2023-05-16T12:03:05.470Z,21.85
2023-05-16T12:05:34.815Z,18.17
2023-05-16T12:08:02.589Z,21.35
2023-05-16T12:10:34.099Z,16.67
2023-05-16T12:13:01.884Z,17.02
2023-05-16T12:15:29.192Z,17.83
2023-05-16T12:17:56.833Z,17.27
2023-05-16T12:20:25.865Z,18.73
2023-05-16T12:22:52.515Z,18.58
2023-05-16T12:25:31.911Z,18.90
2023-05-16T12:28:01.505Z,18.15
2023-05-16T12:30:30.497Z,17.90
2023-05-16T12:33:05.059Z,16.73
2023-05-16T12:35:37.226Z,16.77
2023-05-16T12:38:14.353Z,17.67
2023-05-16T12:40:42.551Z,17.20
2023-05-16T12:43:23.072Z,18.80
2023-05-16T12:45:54.946Z,16.83
2023-05-16T12:48:22.603Z,18.75
2023-05-16T12:50:49.643Z,17.75
2023-05-16T12:53:17.553Z,18.23
2023-05-16T12:55:45.021Z,16.38
2023-05-16T12:58:11.861Z,17.13
2023-05-16T13:00:39.069Z,19.00
2023-05-16T13:03:07.326Z,16.67
2023-05-16T13:05:35.838Z,17.25
2023-05-16T13:08:02.708Z,16.55
2023-05-16T13:10:29.894Z,16.48
2023-05-16T13:12:59.738Z,19.67
2023-05-16T13:15:27.440Z,16.67
2023-05-16T13:17:54.632Z,19.85
2023-05-16T13:20:21.491Z,19.35
2023-05-16T13:22:48.424Z,18.05
2023-05-16T13:25:15.015Z,17.90
2023-05-16T13:27:41.916Z,19.23
2023-05-16T13:30:09.050Z,19.08
2023-05-16T13:32:35.808Z,18.45
2023-05-16T13:35:03.908Z,19.73
2023-05-16T13:37:30.809Z,17.83
2023-05-16T13:39:57.497Z,17.10
2023-05-16T13:42:24.134Z,19.92
2023-05-16T13:44:50.825Z,23.50
2023-05-16T13:47:17.450Z,16.45
2023-05-16T13:49:44.153Z,24.02
2023-05-16T13:52:10.838Z,18.63
2023-05-16T13:54:37.458Z,19.65
2023-05-16T13:57:04.674Z,20.58
2023-05-16T13:59:59.259Z,18.60
2023-05-16T14:02:18.057Z,19.55
2023-05-16T14:04:44.623Z,17.83
2023-05-16T14:07:11.274Z,21.40
2023-05-16T14:09:39.519Z,17.95
2023-05-16T14:12:09.428Z,17.52
2023-05-16T14:14:36.436Z,18.73
2023-05-16T14:17:04.124Z,17.92
2023-05-16T14:19:31.138Z,16.10
2023-05-16T14:21:58.059Z,14.75
2023-05-16T14:24:24.789Z,12.80
2023-05-16T14:26:57.534Z,14.52
2023-05-16T14:29:25.183Z,12.05
2023-05-16T14:31:51.877Z,13.05
2023-05-16T14:34:18.601Z,11.32
2023-05-16T14:36:45.426Z,12.73
2023-05-16T14:39:12.190Z,10.93
2023-05-16T14:41:38.844Z,10.80
2023-05-16T14:44:05.605Z,11.50
2023-05-16T14:46:32.281Z,11.48
2023-05-16T14:48:58.923Z,10.73
2023-05-16T14:51:25.509Z,10.32
2023-05-16T14:53:52.351Z,11.35
2023-05-16T14:56:18.996Z,11.00
2023-05-16T14:58:45.621Z,11.93
2023-05-16T15:01:12.456Z,11.05
2023-05-16T15:06:08.980Z,10.43
2023-05-16T15:08:35.685Z,10.50
2023-05-16T15:11:02.334Z,7.45
2023-05-16T15:13:28.961Z,8.88
2023-05-16T15:15:55.754Z,7.78
2023-05-16T15:18:22.343Z,10.13
2023-05-16T15:20:49.061Z,7.85
2023-05-16T15:23:15.661Z,8.23
2023-05-16T15:25:42.254Z,6.65
2023-05-16T15:28:08.827Z,7.57
2023-05-16T15:30:35.566Z,7.20
2023-05-16T15:33:02.273Z,8.10
2023-05-16T15:35:29.441Z,11.45
2023-05-16T15:37:57.307Z,6.95
2023-05-16T15:40:27.204Z,8.07
2023-05-16T15:42:54.127Z,6.97
2023-05-16T15:45:20.976Z,8.43
2023-05-16T15:47:49.950Z,9.48
2023-05-16T15:50:16.873Z,9.65
2023-05-16T15:52:43.564Z,8.00
2023-05-16T15:55:11.917Z,12.52
2023-05-16T15:57:38.511Z,7.82
2023-05-16T16:00:05.706Z,7.93
2023-05-16T16:02:32.402Z,6.88
2023-05-16T16:04:59.196Z,8.25
2023-05-16T16:07:25.934Z,11.18
2023-05-16T16:09:52.757Z,8.82
2023-05-16T16:12:19.389Z,16.08
2023-05-16T16:14:45.964Z,11.32
2023-05-16T16:17:12.583Z,14.10
2023-05-16T16:19:39.228Z,10.80
2023-05-16T16:22:06.365Z,10.63
2023-05-16T16:24:32.970Z,9.50
2023-05-16T16:26:59.570Z,10.23
2023-05-16T16:29:26.386Z,9.55
2023-05-16T16:31:53.306Z,10.52
2023-05-16T16:34:22.988Z,10.00
2023-05-16T16:36:49.851Z,7.85
2023-05-16T16:39:16.709Z,6.03
2023-05-16T16:41:43.283Z,5.40
2023-05-16T16:44:09.870Z,4.88
2023-05-16T16:46:37.570Z,4.95
2023-05-16T16:49:04.199Z,5.25
2023-05-16T16:51:33.091Z,4.00
2023-05-16T16:53:59.739Z,3.67
2023-05-16T16:56:27.915Z,3.40
2023-05-16T16:58:54.662Z,3.65
2023-05-16T17:01:21.681Z,4.18
2023-05-16T17:03:48.325Z,3.42
2023-05-16T17:06:14.931Z,3.40
2023-05-16T17:08:41.499Z,3.72
2023-05-16T17:11:08.220Z,3.38
2023-05-16T17:13:37.318Z,4.13
2023-05-16T17:16:04.338Z,4.40
2023-05-16T17:18:34.456Z,4.45
2023-05-16T17:21:01.521Z,7.63
2023-05-16T17:23:28.083Z,5.93
2023-05-16T17:25:54.663Z,7.68
2023-05-16T17:28:21.281Z,5.47
2023-05-16T17:30:47.873Z,6.20
2023-05-16T17:33:14.535Z,7.60
2023-05-16T17:35:41.186Z,7.07
2023-05-16T17:38:09.804Z,5.68
2023-05-16T17:40:36.372Z,6.22
2023-05-16T17:43:02.987Z,7.45
2023-05-16T17:45:29.801Z,5.47
2023-05-16T17:47:56.873Z,4.25
2023-05-16T17:50:24.745Z,5.25
2023-05-16T17:52:51.726Z,3.80
2023-05-16T17:55:18.344Z,3.55
2023-05-16T17:57:45.206Z,3.78
2023-05-16T18:00:14.803Z,6.22
2023-05-16T18:02:41.571Z,4.05
2023-05-16T18:05:08.648Z,5.28
2023-05-16T18:07:35.351Z,4.82
2023-05-16T18:10:01.953Z,4.57
2023-05-16T18:12:28.631Z,4.90
2023-05-16T18:14:55.218Z,7.05
2023-05-16T18:17:21.831Z,4.82
2023-05-16T18:19:48.687Z,5.88
2023-05-16T18:22:15.678Z,5.88
2023-05-16T18:24:42.275Z,5.47
2023-05-16T18:27:08.951Z,7.47
2023-05-16T18:29:35.541Z,5.18
2023-05-16T18:32:02.248Z,6.20
2023-05-16T18:34:28.867Z,6.63
2023-05-16T18:36:55.488Z,5.90
2023-05-16T18:39:22.144Z,15.38
2023-05-16T18:41:50.173Z,6.90
2023-05-16T18:44:17.438Z,6.63
2023-05-16T18:46:47.221Z,7.57
2023-05-16T18:49:14.510Z,6.47
2023-05-16T18:51:42.003Z,8.77
2023-05-16T18:54:08.893Z,5.10
2023-05-16T18:56:35.803Z,6.25
2023-05-16T18:59:02.545Z,6.47
2023-05-16T19:01:29.271Z,10.48
2023-05-16T19:03:56.118Z,6.43
2023-05-16T19:06:23.025Z,9.70
2023-05-16T19:08:49.690Z,10.38
2023-05-16T19:11:17.824Z,9.85
2023-05-16T19:13:47.502Z,7.93
2023-05-16T19:16:14.638Z,6.57
2023-05-16T19:18:41.411Z,10.30
2023-05-16T19:21:08.520Z,5.45
2023-05-16T19:23:35.278Z,7.68
2023-05-16T19:26:01.890Z,9.10
2023-05-16T19:28:28.521Z,6.53
2023-05-16T19:30:55.214Z,11.50
2023-05-16T19:33:21.830Z,9.95
2023-05-16T19:35:51.340Z,10.25
2023-05-16T19:38:19.681Z,7.32
2023-05-16T19:40:46.734Z,7.55
2023-05-16T19:43:13.398Z,11.02
2023-05-16T19:45:40.080Z,10.13
2023-05-16T19:48:07.356Z,7.43
2023-05-16T19:50:34.074Z,11.95
2023-05-16T19:53:00.783Z,7.90
2023-05-16T19:55:28.748Z,7.18
2023-05-16T19:57:56.018Z,5.63
2023-05-16T20:00:22.762Z,7.38
2023-05-16T20:02:49.557Z,7.82
2023-05-16T20:05:19.774Z,8.63
2023-05-16T20:07:46.687Z,10.52
2023-05-16T20:10:13.303Z,7.78
2023-05-16T20:12:39.965Z,9.48
2023-05-16T20:15:08.672Z,12.38
2023-05-16T20:17:35.530Z,9.70
2023-05-16T20:20:02.274Z,7.30
2023-05-16T20:22:28.931Z,10.27
2023-05-16T20:24:55.871Z,11.88
2023-05-16T20:27:22.514Z,7.72
2023-05-16T20:29:49.430Z,5.43
2023-05-16T20:32:16.257Z,5.50
2023-05-16T20:34:42.816Z,7.13
2023-05-16T20:37:09.426Z,6.82
2023-05-16T20:39:36.135Z,11.35
2023-05-16T20:42:02.721Z,5.07
2023-05-16T20:44:29.400Z,6.85
2023-05-16T20:46:56.067Z,10.73
2023-05-16T20:49:22.645Z,11.50
2023-05-16T20:51:49.265Z,8.18
2023-05-16T20:54:15.919Z,10.10
2023-05-16T20:56:42.543Z,4.97
2023-05-16T20:59:09.141Z,6.60
2023-05-16T21:01:35.902Z,7.35
2023-05-16T21:04:02.627Z,9.00
2023-05-16T21:06:29.258Z,3.05
2023-05-16T21:08:56.027Z,7.57
2023-05-16T21:11:22.774Z,6.18
2023-05-16T21:13:49.456Z,9.15
2023-05-16T21:16:16.038Z,6.28
2023-05-16T21:18:42.855Z,7.35
2023-05-16T21:21:09.703Z,11.88
2023-05-16T21:23:36.290Z,5.85
2023-05-16T21:26:03.251Z,7.45
2023-05-16T21:28:32.706Z,9.98
2023-05-16T21:31:01.378Z,6.68
2023-05-16T21:33:27.962Z,6.47
2023-05-16T21:35:55.132Z,6.43
2023-05-16T21:38:21.852Z,5.18
2023-05-16T21:40:48.582Z,7.53
2023-05-16T21:43:15.277Z,8.85
2023-05-16T21:45:41.920Z,9.15
2023-05-16T21:48:08.810Z,7.53
2023-05-16T21:50:35.611Z,6.40
2023-05-16T21:53:02.542Z,10.00
2023-05-16T21:55:29.298Z,5.00
2023-05-16T21:57:56.051Z,6.85
2023-05-16T22:00:22.714Z,7.45
2023-05-16T22:02:49.629Z,7.18
2023-05-16T22:05:19.168Z,8.82
2023-05-16T22:07:46.207Z,6.93
2023-05-16T22:10:12.826Z,7.38
2023-05-16T22:12:39.493Z,5.97
2023-05-16T22:15:06.882Z,7.93
2023-05-16T22:17:33.588Z,4.95
2023-05-16T22:20:02.000Z,3.80
2023-05-16T22:22:28.617Z,6.32
2023-05-16T22:24:55.205Z,7.15
2023-05-16T22:27:21.765Z,6.40
2023-05-16T22:29:48.444Z,5.20
2023-05-16T22:32:15.011Z,3.70
2023-05-16T22:34:41.689Z,4.15
2023-05-16T22:37:09.382Z,7.70
2023-05-16T22:39:36.260Z,7.03
2023-05-16T22:42:03.483Z,5.85
2023-05-16T22:44:30.162Z,10.57
2023-05-16T22:46:56.803Z,7.18
2023-05-16T22:49:23.611Z,6.78
2023-05-16T22:51:50.381Z,5.65
2023-05-16T22:54:17.393Z,4.35
2023-05-16T22:56:44.069Z,3.03
2023-05-16T22:59:10.981Z,5.20
2023-05-16T23:01:37.750Z,4.28
2023-05-16T23:04:04.854Z,6.28
2023-05-16T23:06:32.385Z,5.47
2023-05-16T23:09:00.384Z,9.13
2023-05-16T23:11:26.964Z,4.03
2023-05-16T23:13:53.549Z,4.18
2023-05-16T23:16:20.276Z,4.25
2023-05-16T23:18:46.998Z,5.07
2023-05-16T23:21:13.641Z,6.88
2023-05-16T23:23:40.271Z,6.32
2023-05-16T23:26:06.935Z,4.68
2023-05-16T23:28:33.585Z,3.90
2023-05-16T23:31:00.288Z,6.82
2023-05-16T23:33:27.094Z,5.10
2023-05-16T23:35:53.658Z,6.55
2023-05-16T23:38:20.333Z,4.32
2023-05-16T23:40:46.983Z,5.70
2023-05-16T23:43:13.789Z,3.22
2023-05-16T23:45:40.353Z,5.22
2023-05-16T23:48:06.934Z,4.07
2023-05-16T23:50:33.615Z,4.78
2023-05-16T23:53:00.586Z,6.78
2023-05-16T23:55:27.328Z,6.97
2023-05-16T23:57:53.970Z,3.00
